sensor_id;sensor_type;location;lat;lon;timestamp;P1;durP1;ratioP1;P2;durP2;ratioP2
14528;SDS011;7351;51.194;4.098;2023-03-14T00:00:03;12.43;;;10.57;;
14528;SDS011;7351;51.194;4.098;2023-03-14T00:02:35;10.97;;;9.87;;
14528;SDS011;7351;51.194;4.098;2023-03-14T00:05:02;10.30;;;9.27;;
14528;SDS011;7351;51.194;4.098;2023-03-14T00:07:32;11.00;;;9.83;;
14528;SDS011;7351;51.194;4.098;2023-03-14T00:10:00;10.50;;;9.43;;
14528;SDS011;7351;51.194;4.098;2023-03-14T00:12:29;9.77;;;8.80;;
14528;SDS011;7351;51.194;4.098;2023-03-14T00:14:57;8.80;;;7.97;;
14528;SDS011;7351;51.194;4.098;2023-03-14T00:17:26;9.60;;;8.17;;
14528;SDS011;7351;51.194;4.098;2023-03-14T00:19:53;9.90;;;8.90;;
14528;SDS011;7351;51.194;4.098;2023-03-14T00:22:20;8.47;;;7.57;;
14528;SDS011;7351;51.194;4.098;2023-03-14T00:24:47;8.73;;;7.43;;
14528;SDS011;7351;51.194;4.098;2023-03-14T00:27:14;8.10;;;7.30;;
14528;SDS011;7351;51.194;4.098;2023-03-14T00:29:42;8.80;;;7.30;;
14528;SDS011;7351;51.194;4.098;2023-03-14T00:32:10;9.63;;;7.33;;
14528;SDS011;7351;51.194;4.098;2023-03-14T00:34:38;8.17;;;6.97;;
14528;SDS011;7351;51.194;4.098;2023-03-14T00:37:05;7.10;;;6.40;;
14528;SDS011;7351;51.194;4.098;2023-03-14T00:39:32;8.83;;;6.50;;
14528;SDS011;7351;51.194;4.098;2023-03-14T00:41:59;7.87;;;6.63;;
14528;SDS011;7351;51.194;4.098;2023-03-14T00:44:26;7.23;;;6.43;;
14528;SDS011;7351;51.194;4.098;2023-03-14T00:46:53;6.13;;;5.50;;
14528;SDS011;7351;51.194;4.098;2023-03-14T00:49:20;7.50;;;5.40;;
14528;SDS011;7351;51.194;4.098;2023-03-14T00:51:48;6.87;;;5.60;;
14528;SDS011;7351;51.194;4.098;2023-03-14T00:54:16;6.17;;;4.23;;
14528;SDS011;7351;51.194;4.098;2023-03-14T00:56:43;6.00;;;5.13;;
14528;SDS011;7351;51.194;4.098;2023-03-14T00:59:10;6.60;;;5.00;;
14528;SDS011;7351;51.194;4.098;2023-03-14T01:01:38;6.47;;;4.73;;
14528;SDS011;7351;51.194;4.098;2023-03-14T01:04:05;5.73;;;4.50;;
14528;SDS011;7351;51.194;4.098;2023-03-14T01:06:32;4.83;;;4.10;;
14528;SDS011;7351;51.194;4.098;2023-03-14T01:09:01;8.80;;;4.73;;
14528;SDS011;7351;51.194;4.098;2023-03-14T01:11:29;7.20;;;4.63;;
14528;SDS011;7351;51.194;4.098;2023-03-14T01:13:57;4.73;;;4.13;;
14528;SDS011;7351;51.194;4.098;2023-03-14T01:16:26;5.37;;;4.80;;
14528;SDS011;7351;51.194;4.098;2023-03-14T01:18:54;6.33;;;4.47;;
14528;SDS011;7351;51.194;4.098;2023-03-14T01:21:22;4.17;;;3.53;;
14528;SDS011;7351;51.194;4.098;2023-03-14T01:23:50;4.97;;;3.83;;
14528;SDS011;7351;51.194;4.098;2023-03-14T01:26:20;5.20;;;3.50;;
14528;SDS011;7351;51.194;4.098;2023-03-14T01:28:50;6.13;;;4.17;;
14528;SDS011;7351;51.194;4.098;2023-03-14T01:31:18;5.83;;;3.47;;
14528;SDS011;7351;51.194;4.098;2023-03-14T01:33:46;3.27;;;2.97;;
14528;SDS011;7351;51.194;4.098;2023-03-14T01:36:13;4.00;;;3.60;;
14528;SDS011;7351;51.194;4.098;2023-03-14T01:38:40;6.77;;;3.80;;
14528;SDS011;7351;51.194;4.098;2023-03-14T01:41:08;4.87;;;3.97;;
14528;SDS011;7351;51.194;4.098;2023-03-14T01:43:42;6.57;;;3.93;;
14528;SDS011;7351;51.194;4.098;2023-03-14T01:48:55;7.80;;;4.03;;
14528;SDS011;7351;51.194;4.098;2023-03-14T01:51:29;5.17;;;3.10;;
14528;SDS011;7351;51.194;4.098;2023-03-14T01:54:00;4.13;;;3.10;;
14528;SDS011;7351;51.194;4.098;2023-03-14T01:56:32;5.03;;;3.40;;
14528;SDS011;7351;51.194;4.098;2023-03-14T01:59:01;3.87;;;3.13;;
14528;SDS011;7351;51.194;4.098;2023-03-14T02:01:31;6.17;;;3.10;;
14528;SDS011;7351;51.194;4.098;2023-03-14T02:03:59;4.60;;;3.10;;
14528;SDS011;7351;51.194;4.098;2023-03-14T02:06:30;5.03;;;3.13;;
14528;SDS011;7351;51.194;4.098;2023-03-14T02:09:02;4.07;;;3.07;;
14528;SDS011;7351;51.194;4.098;2023-03-14T02:11:29;5.53;;;3.60;;
14528;SDS011;7351;51.194;4.098;2023-03-14T02:13:57;6.93;;;3.37;;
14528;SDS011;7351;51.194;4.098;2023-03-14T02:16:26;4.67;;;3.13;;
14528;SDS011;7351;51.194;4.098;2023-03-14T02:18:53;5.13;;;3.37;;
14528;SDS011;7351;51.194;4.098;2023-03-14T02:21:21;7.70;;;3.70;;
14528;SDS011;7351;51.194;4.098;2023-03-14T02:23:56;4.83;;;3.60;;
14528;SDS011;7351;51.194;4.098;2023-03-14T02:26:30;11.60;;;3.97;;
14528;SDS011;7351;51.194;4.098;2023-03-14T02:29:04;8.27;;;3.13;;
14528;SDS011;7351;51.194;4.098;2023-03-14T02:31:31;6.77;;;3.50;;
14528;SDS011;7351;51.194;4.098;2023-03-14T02:33:59;4.70;;;2.70;;
14528;SDS011;7351;51.194;4.098;2023-03-14T02:36:28;8.10;;;3.53;;
14528;SDS011;7351;51.194;4.098;2023-03-14T02:38:58;7.07;;;3.53;;
14528;SDS011;7351;51.194;4.098;2023-03-14T02:41:32;7.30;;;3.17;;
14528;SDS011;7351;51.194;4.098;2023-03-14T02:43:59;5.20;;;2.40;;
14528;SDS011;7351;51.194;4.098;2023-03-14T02:46:27;4.20;;;2.67;;
14528;SDS011;7351;51.194;4.098;2023-03-14T02:48:55;4.67;;;2.63;;
14528;SDS011;7351;51.194;4.098;2023-03-14T02:51:26;5.63;;;2.80;;
14528;SDS011;7351;51.194;4.098;2023-03-14T02:53:55;5.90;;;2.93;;
14528;SDS011;7351;51.194;4.098;2023-03-14T02:56:22;7.90;;;2.90;;
14528;SDS011;7351;51.194;4.098;2023-03-14T02:58:48;6.03;;;3.50;;
14528;SDS011;7351;51.194;4.098;2023-03-14T03:01:16;5.40;;;2.67;;
14528;SDS011;7351;51.194;4.098;2023-03-14T03:03:44;5.73;;;2.37;;
14528;SDS011;7351;51.194;4.098;2023-03-14T03:06:11;3.80;;;2.40;;
14528;SDS011;7351;51.194;4.098;2023-03-14T03:08:38;5.13;;;2.83;;
14528;SDS011;7351;51.194;4.098;2023-03-14T03:11:05;3.10;;;2.47;;
14528;SDS011;7351;51.194;4.098;2023-03-14T03:13:33;3.93;;;2.37;;
14528;SDS011;7351;51.194;4.098;2023-03-14T03:16:00;3.27;;;2.10;;
14528;SDS011;7351;51.194;4.098;2023-03-14T03:18:27;4.97;;;2.80;;
14528;SDS011;7351;51.194;4.098;2023-03-14T03:20:55;3.33;;;2.33;;
14528;SDS011;7351;51.194;4.098;2023-03-14T03:23:25;5.40;;;2.17;;
14528;SDS011;7351;51.194;4.098;2023-03-14T03:25:52;3.67;;;2.27;;
14528;SDS011;7351;51.194;4.098;2023-03-14T03:28:19;4.50;;;2.33;;
14528;SDS011;7351;51.194;4.098;2023-03-14T03:30:46;5.40;;;2.83;;
14528;SDS011;7351;51.194;4.098;2023-03-14T03:33:13;2.50;;;2.10;;
14528;SDS011;7351;51.194;4.098;2023-03-14T03:35:44;4.03;;;2.30;;
14528;SDS011;7351;51.194;4.098;2023-03-14T03:38:13;3.63;;;2.10;;
14528;SDS011;7351;51.194;4.098;2023-03-14T03:40:40;3.37;;;2.27;;
14528;SDS011;7351;51.194;4.098;2023-03-14T03:43:07;3.90;;;2.10;;
14528;SDS011;7351;51.194;4.098;2023-03-14T03:45:34;4.10;;;2.57;;
14528;SDS011;7351;51.194;4.098;2023-03-14T03:48:01;2.83;;;1.77;;
14528;SDS011;7351;51.194;4.098;2023-03-14T03:50:29;4.43;;;2.63;;
14528;SDS011;7351;51.194;4.098;2023-03-14T03:52:55;3.70;;;2.13;;
14528;SDS011;7351;51.194;4.098;2023-03-14T03:55:24;5.33;;;1.83;;
14528;SDS011;7351;51.194;4.098;2023-03-14T03:57:53;4.53;;;1.93;;
14528;SDS011;7351;51.194;4.098;2023-03-14T04:00:20;2.90;;;2.30;;
14528;SDS011;7351;51.194;4.098;2023-03-14T04:02:47;3.00;;;2.07;;
14528;SDS011;7351;51.194;4.098;2023-03-14T04:05:14;4.00;;;1.70;;
14528;SDS011;7351;51.194;4.098;2023-03-14T04:07:41;5.27;;;2.13;;
14528;SDS011;7351;51.194;4.098;2023-03-14T04:10:08;3.47;;;2.03;;
14528;SDS011;7351;51.194;4.098;2023-03-14T04:12:37;3.37;;;2.00;;
14528;SDS011;7351;51.194;4.098;2023-03-14T04:15:04;2.27;;;2.03;;
14528;SDS011;7351;51.194;4.098;2023-03-14T04:17:32;4.60;;;2.70;;
14528;SDS011;7351;51.194;4.098;2023-03-14T04:19:59;4.00;;;2.33;;
14528;SDS011;7351;51.194;4.098;2023-03-14T04:22:26;5.30;;;2.50;;
14528;SDS011;7351;51.194;4.098;2023-03-14T04:24:53;2.37;;;1.77;;
14528;SDS011;7351;51.194;4.098;2023-03-14T04:27:20;2.23;;;2.00;;
14528;SDS011;7351;51.194;4.098;2023-03-14T04:29:48;4.47;;;1.93;;
14528;SDS011;7351;51.194;4.098;2023-03-14T04:32:15;3.00;;;2.20;;
14528;SDS011;7351;51.194;4.098;2023-03-14T04:34:42;3.87;;;2.17;;
14528;SDS011;7351;51.194;4.098;2023-03-14T04:37:09;4.97;;;2.23;;
14528;SDS011;7351;51.194;4.098;2023-03-14T04:39:36;3.00;;;2.23;;
14528;SDS011;7351;51.194;4.098;2023-03-14T04:42:03;5.00;;;2.03;;
14528;SDS011;7351;51.194;4.098;2023-03-14T04:44:30;5.87;;;2.17;;
14528;SDS011;7351;51.194;4.098;2023-03-14T04:46:59;5.83;;;2.60;;
14528;SDS011;7351;51.194;4.098;2023-03-14T04:49:26;3.57;;;2.10;;
14528;SDS011;7351;51.194;4.098;2023-03-14T04:51:53;4.27;;;1.93;;
14528;SDS011;7351;51.194;4.098;2023-03-14T04:54:20;8.47;;;2.53;;
14528;SDS011;7351;51.194;4.098;2023-03-14T04:56:46;3.40;;;2.57;;
14528;SDS011;7351;51.194;4.098;2023-03-14T04:59:13;3.67;;;2.07;;
14528;SDS011;7351;51.194;4.098;2023-03-14T05:01:40;4.43;;;2.00;;
14528;SDS011;7351;51.194;4.098;2023-03-14T05:04:09;3.47;;;2.50;;
14528;SDS011;7351;51.194;4.098;2023-03-14T05:06:36;2.67;;;2.00;;
14528;SDS011;7351;51.194;4.098;2023-03-14T05:09:04;2.83;;;2.57;;
14528;SDS011;7351;51.194;4.098;2023-03-14T05:11:31;3.67;;;2.10;;
14528;SDS011;7351;51.194;4.098;2023-03-14T05:13:58;4.77;;;2.80;;
14528;SDS011;7351;51.194;4.098;2023-03-14T05:16:25;3.27;;;2.50;;
14528;SDS011;7351;51.194;4.098;2023-03-14T05:18:52;2.67;;;2.00;;
14528;SDS011;7351;51.194;4.098;2023-03-14T05:21:21;3.63;;;2.60;;
14528;SDS011;7351;51.194;4.098;2023-03-14T05:23:48;2.90;;;2.40;;
14528;SDS011;7351;51.194;4.098;2023-03-14T05:26:15;3.97;;;2.77;;
14528;SDS011;7351;51.194;4.098;2023-03-14T05:28:42;2.73;;;2.50;;
14528;SDS011;7351;51.194;4.098;2023-03-14T05:31:09;4.10;;;2.40;;
14528;SDS011;7351;51.194;4.098;2023-03-14T05:33:36;3.63;;;2.33;;
14528;SDS011;7351;51.194;4.098;2023-03-14T05:36:03;4.57;;;3.27;;
14528;SDS011;7351;51.194;4.098;2023-03-14T05:38:32;3.90;;;3.07;;
14528;SDS011;7351;51.194;4.098;2023-03-14T05:40:59;4.07;;;2.63;;
14528;SDS011;7351;51.194;4.098;2023-03-14T05:43:26;3.33;;;2.90;;
14528;SDS011;7351;51.194;4.098;2023-03-14T05:45:53;3.30;;;2.70;;
14528;SDS011;7351;51.194;4.098;2023-03-14T05:48:20;5.77;;;2.80;;
14528;SDS011;7351;51.194;4.098;2023-03-14T05:50:47;5.47;;;3.07;;
14528;SDS011;7351;51.194;4.098;2023-03-14T05:53:14;2.40;;;2.20;;
14528;SDS011;7351;51.194;4.098;2023-03-14T05:55:43;4.17;;;2.40;;
14528;SDS011;7351;51.194;4.098;2023-03-14T05:58:10;5.33;;;3.47;;
14528;SDS011;7351;51.194;4.098;2023-03-14T06:00:37;309.87;;;289.70;;
14528;SDS011;7351;51.194;4.098;2023-03-14T06:03:03;467.13;;;434.40;;
14528;SDS011;7351;51.194;4.098;2023-03-14T06:05:30;473.07;;;440.83;;
14528;SDS011;7351;51.194;4.098;2023-03-14T06:07:57;392.50;;;367.13;;
14528;SDS011;7351;51.194;4.098;2023-03-14T06:10:24;318.97;;;298.80;;
14528;SDS011;7351;51.194;4.098;2023-03-14T06:12:53;275.70;;;258.27;;
14528;SDS011;7351;51.194;4.098;2023-03-14T06:15:20;258.07;;;241.77;;
14528;SDS011;7351;51.194;4.098;2023-03-14T06:17:47;232.03;;;217.67;;
14528;SDS011;7351;51.194;4.098;2023-03-14T06:20:14;207.40;;;194.30;;
14528;SDS011;7351;51.194;4.098;2023-03-14T06:22:41;201.83;;;189.30;;
14528;SDS011;7351;51.194;4.098;2023-03-14T06:25:08;185.60;;;173.63;;
14528;SDS011;7351;51.194;4.098;2023-03-14T06:27:35;172.23;;;161.43;;
14528;SDS011;7351;51.194;4.098;2023-03-14T06:30:04;165.00;;;154.63;;
14528;SDS011;7351;51.194;4.098;2023-03-14T06:32:32;156.67;;;146.40;;
14528;SDS011;7351;51.194;4.098;2023-03-14T06:34:59;149.30;;;140.30;;
14528;SDS011;7351;51.194;4.098;2023-03-14T06:37:26;146.63;;;137.47;;
14528;SDS011;7351;51.194;4.098;2023-03-14T06:39:53;140.73;;;131.97;;
14528;SDS011;7351;51.194;4.098;2023-03-14T06:42:21;128.37;;;120.60;;
14528;SDS011;7351;51.194;4.098;2023-03-14T06:44:48;121.40;;;113.90;;
14528;SDS011;7351;51.194;4.098;2023-03-14T06:47:16;110.13;;;102.97;;
14528;SDS011;7351;51.194;4.098;2023-03-14T06:49:43;99.90;;;93.60;;
14528;SDS011;7351;51.194;4.098;2023-03-14T06:52:10;98.73;;;92.50;;
14528;SDS011;7351;51.194;4.098;2023-03-14T06:54:37;94.10;;;88.27;;
14528;SDS011;7351;51.194;4.098;2023-03-14T06:57:04;89.23;;;83.87;;
14528;SDS011;7351;51.194;4.098;2023-03-14T06:59:31;83.20;;;78.23;;
14528;SDS011;7351;51.194;4.098;2023-03-14T07:01:58;79.73;;;74.93;;
14528;SDS011;7351;51.194;4.098;2023-03-14T07:04:27;78.03;;;73.20;;
14528;SDS011;7351;51.194;4.098;2023-03-14T07:06:54;73.67;;;68.97;;
14528;SDS011;7351;51.194;4.098;2023-03-14T07:09:21;69.33;;;64.87;;
14528;SDS011;7351;51.194;4.098;2023-03-14T07:11:48;70.17;;;65.50;;
14528;SDS011;7351;51.194;4.098;2023-03-14T07:14:15;61.90;;;58.20;;
14528;SDS011;7351;51.194;4.098;2023-03-14T07:16:41;62.10;;;58.10;;
14528;SDS011;7351;51.194;4.098;2023-03-14T07:19:10;59.43;;;55.43;;
14528;SDS011;7351;51.194;4.098;2023-03-14T07:21:38;61.20;;;57.30;;
14528;SDS011;7351;51.194;4.098;2023-03-14T07:24:05;60.13;;;56.43;;
14528;SDS011;7351;51.194;4.098;2023-03-14T07:26:32;59.17;;;55.37;;
14528;SDS011;7351;51.194;4.098;2023-03-14T07:29:00;53.97;;;50.67;;
14528;SDS011;7351;51.194;4.098;2023-03-14T07:31:28;53.90;;;50.53;;
14528;SDS011;7351;51.194;4.098;2023-03-14T07:33:55;52.87;;;49.53;;
14528;SDS011;7351;51.194;4.098;2023-03-14T07:36:22;52.30;;;49.17;;
14528;SDS011;7351;51.194;4.098;2023-03-14T07:38:51;51.47;;;48.30;;
14528;SDS011;7351;51.194;4.098;2023-03-14T07:41:18;50.90;;;47.67;;
14528;SDS011;7351;51.194;4.098;2023-03-14T07:43:45;46.67;;;43.87;;
14528;SDS011;7351;51.194;4.098;2023-03-14T07:46:12;44.90;;;42.10;;
14528;SDS011;7351;51.194;4.098;2023-03-14T07:48:40;43.67;;;40.93;;
14528;SDS011;7351;51.194;4.098;2023-03-14T07:51:07;43.90;;;41.00;;
14528;SDS011;7351;51.194;4.098;2023-03-14T07:53:34;39.07;;;36.60;;
14528;SDS011;7351;51.194;4.098;2023-03-14T07:56:02;40.73;;;38.23;;
14528;SDS011;7351;51.194;4.098;2023-03-14T07:58:29;37.23;;;34.93;;
14528;SDS011;7351;51.194;4.098;2023-03-14T08:00:58;35.67;;;33.27;;
14528;SDS011;7351;51.194;4.098;2023-03-14T08:03:25;34.10;;;31.80;;
14528;SDS011;7351;51.194;4.098;2023-03-14T08:05:52;33.53;;;31.17;;
14528;SDS011;7351;51.194;4.098;2023-03-14T08:08:20;34.47;;;32.27;;
14528;SDS011;7351;51.194;4.098;2023-03-14T08:10:47;30.73;;;28.80;;
14528;SDS011;7351;51.194;4.098;2023-03-14T08:13:15;30.80;;;28.93;;
14528;SDS011;7351;51.194;4.098;2023-03-14T08:15:42;30.00;;;28.10;;
14528;SDS011;7351;51.194;4.098;2023-03-14T08:18:13;28.10;;;26.40;;
14528;SDS011;7351;51.194;4.098;2023-03-14T08:20:40;27.47;;;25.47;;
14528;SDS011;7351;51.194;4.098;2023-03-14T08:23:07;28.10;;;25.93;;
14528;SDS011;7351;51.194;4.098;2023-03-14T08:25:34;25.93;;;24.30;;
14528;SDS011;7351;51.194;4.098;2023-03-14T08:28:01;25.23;;;23.47;;
14528;SDS011;7351;51.194;4.098;2023-03-14T08:30:29;25.23;;;23.63;;
14528;SDS011;7351;51.194;4.098;2023-03-14T08:32:56;23.80;;;22.10;;
14528;SDS011;7351;51.194;4.098;2023-03-14T08:35:23;23.47;;;22.00;;
14528;SDS011;7351;51.194;4.098;2023-03-14T08:37:50;20.97;;;19.67;;
14528;SDS011;7351;51.194;4.098;2023-03-14T08:40:18;18.87;;;17.47;;
14528;SDS011;7351;51.194;4.098;2023-03-14T08:42:45;19.00;;;17.43;;
14528;SDS011;7351;51.194;4.098;2023-03-14T08:45:13;18.67;;;17.27;;
14528;SDS011;7351;51.194;4.098;2023-03-14T08:47:43;18.20;;;17.00;;
14528;SDS011;7351;51.194;4.098;2023-03-14T08:50:10;15.27;;;14.23;;
14528;SDS011;7351;51.194;4.098;2023-03-14T08:52:38;16.30;;;15.20;;
14528;SDS011;7351;51.194;4.098;2023-03-14T08:55:06;15.77;;;14.77;;
14528;SDS011;7351;51.194;4.098;2023-03-14T08:57:34;14.83;;;13.73;;
14528;SDS011;7351;51.194;4.098;2023-03-14T09:00:02;14.30;;;13.37;;
14528;SDS011;7351;51.194;4.098;2023-03-14T09:02:35;15.70;;;14.47;;
14528;SDS011;7351;51.194;4.098;2023-03-14T09:05:04;12.93;;;11.93;;
14528;SDS011;7351;51.194;4.098;2023-03-14T09:07:32;14.37;;;12.93;;
14528;SDS011;7351;51.194;4.098;2023-03-14T09:09:59;13.57;;;12.53;;
14528;SDS011;7351;51.194;4.098;2023-03-14T09:12:26;13.97;;;12.97;;
14528;SDS011;7351;51.194;4.098;2023-03-14T09:14:53;12.13;;;11.33;;
14528;SDS011;7351;51.194;4.098;2023-03-14T09:17:20;13.00;;;12.10;;
14528;SDS011;7351;51.194;4.098;2023-03-14T09:19:47;12.27;;;11.37;;
14528;SDS011;7351;51.194;4.098;2023-03-14T09:22:15;11.57;;;10.73;;
14528;SDS011;7351;51.194;4.098;2023-03-14T09:24:42;12.37;;;11.47;;
14528;SDS011;7351;51.194;4.098;2023-03-14T09:27:09;12.43;;;11.53;;
14528;SDS011;7351;51.194;4.098;2023-03-14T09:29:36;10.90;;;10.00;;
14528;SDS011;7351;51.194;4.098;2023-03-14T09:32:03;9.70;;;9.10;;
14528;SDS011;7351;51.194;4.098;2023-03-14T09:34:30;9.70;;;9.00;;
14528;SDS011;7351;51.194;4.098;2023-03-14T09:36:57;9.53;;;8.83;;
14528;SDS011;7351;51.194;4.098;2023-03-14T09:39:25;9.60;;;8.93;;
14528;SDS011;7351;51.194;4.098;2023-03-14T09:41:52;10.13;;;9.27;;
14528;SDS011;7351;51.194;4.098;2023-03-14T09:44:24;9.67;;;8.97;;
14528;SDS011;7351;51.194;4.098;2023-03-14T09:46:54;9.33;;;8.57;;
14528;SDS011;7351;51.194;4.098;2023-03-14T09:49:23;8.40;;;7.77;;
14528;SDS011;7351;51.194;4.098;2023-03-14T09:51:54;8.60;;;7.80;;
14528;SDS011;7351;51.194;4.098;2023-03-14T09:54:34;9.23;;;8.53;;
14528;SDS011;7351;51.194;4.098;2023-03-14T09:57:04;8.03;;;7.53;;
14528;SDS011;7351;51.194;4.098;2023-03-14T09:59:36;7.60;;;7.17;;
14528;SDS011;7351;51.194;4.098;2023-03-14T10:02:11;8.40;;;7.80;;
14528;SDS011;7351;51.194;4.098;2023-03-14T10:04:41;8.03;;;7.53;;
14528;SDS011;7351;51.194;4.098;2023-03-14T10:07:11;8.00;;;7.47;;
14528;SDS011;7351;51.194;4.098;2023-03-14T10:09:44;7.03;;;6.47;;
14528;SDS011;7351;51.194;4.098;2023-03-14T10:12:12;8.20;;;7.37;;
14528;SDS011;7351;51.194;4.098;2023-03-14T10:14:44;7.07;;;6.57;;
14528;SDS011;7351;51.194;4.098;2023-03-14T10:17:13;6.87;;;6.47;;
14528;SDS011;7351;51.194;4.098;2023-03-14T10:19:50;7.13;;;6.63;;
14528;SDS011;7351;51.194;4.098;2023-03-14T10:22:18;5.87;;;5.47;;
14528;SDS011;7351;51.194;4.098;2023-03-14T10:24:49;7.40;;;6.80;;
14528;SDS011;7351;51.194;4.098;2023-03-14T10:27:19;6.40;;;5.83;;
14528;SDS011;7351;51.194;4.098;2023-03-14T10:29:51;7.03;;;6.37;;
14528;SDS011;7351;51.194;4.098;2023-03-14T10:32:21;6.37;;;5.87;;
14528;SDS011;7351;51.194;4.098;2023-03-14T10:35:04;5.97;;;5.57;;
14528;SDS011;7351;51.194;4.098;2023-03-14T10:37:48;6.00;;;5.57;;
14528;SDS011;7351;51.194;4.098;2023-03-14T10:40:19;6.07;;;5.67;;
14528;SDS011;7351;51.194;4.098;2023-03-14T10:42:50;6.43;;;5.93;;
14528;SDS011;7351;51.194;4.098;2023-03-14T10:45:22;5.63;;;5.30;;
14528;SDS011;7351;51.194;4.098;2023-03-14T10:47:59;5.80;;;5.30;;
14528;SDS011;7351;51.194;4.098;2023-03-14T10:50:32;6.13;;;5.53;;
14528;SDS011;7351;51.194;4.098;2023-03-14T10:53:00;5.87;;;5.40;;
14528;SDS011;7351;51.194;4.098;2023-03-14T10:55:39;5.90;;;5.50;;
14528;SDS011;7351;51.194;4.098;2023-03-14T10:58:17;6.13;;;5.73;;
14528;SDS011;7351;51.194;4.098;2023-03-14T11:00:50;6.07;;;5.47;;
14528;SDS011;7351;51.194;4.098;2023-03-14T11:03:22;5.20;;;4.80;;
14528;SDS011;7351;51.194;4.098;2023-03-14T11:05:53;6.10;;;5.37;;
14528;SDS011;7351;51.194;4.098;2023-03-14T11:08:25;5.90;;;5.40;;
14528;SDS011;7351;51.194;4.098;2023-03-14T11:11:06;6.70;;;5.20;;
14528;SDS011;7351;51.194;4.098;2023-03-14T11:13:39;5.10;;;4.00;;
14528;SDS011;7351;51.194;4.098;2023-03-14T11:16:19;5.43;;;4.80;;
14528;SDS011;7351;51.194;4.098;2023-03-14T11:21:46;11.40;;;6.50;;
14528;SDS011;7351;51.194;4.098;2023-03-14T11:24:23;10.13;;;8.00;;
14528;SDS011;7351;51.194;4.098;2023-03-14T11:27:10;12.63;;;8.17;;
14528;SDS011;7351;51.194;4.098;2023-03-14T11:29:45;19.13;;;13.13;;
14528;SDS011;7351;51.194;4.098;2023-03-14T11:32:23;26.37;;;12.97;;
14528;SDS011;7351;51.194;4.098;2023-03-14T11:34:58;15.17;;;10.60;;
14528;SDS011;7351;51.194;4.098;2023-03-14T11:37:31;13.20;;;10.60;;
14528;SDS011;7351;51.194;4.098;2023-03-14T11:40:01;19.47;;;11.73;;
14528;SDS011;7351;51.194;4.098;2023-03-14T11:42:36;16.03;;;11.10;;
14528;SDS011;7351;51.194;4.098;2023-03-14T11:45:10;21.27;;;11.20;;
14528;SDS011;7351;51.194;4.098;2023-03-14T11:47:42;19.03;;;11.03;;
14528;SDS011;7351;51.194;4.098;2023-03-14T11:50:13;19.93;;;9.80;;
14528;SDS011;7351;51.194;4.098;2023-03-14T11:52:45;12.63;;;9.90;;
14528;SDS011;7351;51.194;4.098;2023-03-14T11:55:17;11.40;;;8.60;;
14528;SDS011;7351;51.194;4.098;2023-03-14T11:57:48;14.23;;;9.83;;
14528;SDS011;7351;51.194;4.098;2023-03-14T12:00:18;13.30;;;8.53;;
14528;SDS011;7351;51.194;4.098;2023-03-14T12:02:48;10.67;;;8.20;;
14528;SDS011;7351;51.194;4.098;2023-03-14T12:05:26;22.40;;;9.13;;
14528;SDS011;7351;51.194;4.098;2023-03-14T12:11:11;11.77;;;8.03;;
14528;SDS011;7351;51.194;4.098;2023-03-14T12:13:46;10.40;;;7.57;;
14528;SDS011;7351;51.194;4.098;2023-03-14T12:19:13;15.03;;;6.73;;
14528;SDS011;7351;51.194;4.098;2023-03-14T12:22:06;11.87;;;7.00;;
14528;SDS011;7351;51.194;4.098;2023-03-14T12:24:45;8.90;;;6.30;;
14528;SDS011;7351;51.194;4.098;2023-03-14T12:30:26;9.60;;;6.27;;
14528;SDS011;7351;51.194;4.098;2023-03-14T12:35:48;8.40;;;6.07;;
14528;SDS011;7351;51.194;4.098;2023-03-14T12:38:17;7.40;;;4.93;;
14528;SDS011;7351;51.194;4.098;2023-03-14T12:40:50;7.93;;;5.60;;
14528;SDS011;7351;51.194;4.098;2023-03-14T12:43:24;8.70;;;5.30;;
14528;SDS011;7351;51.194;4.098;2023-03-14T12:48:45;13.23;;;4.50;;
14528;SDS011;7351;51.194;4.098;2023-03-14T12:51:15;8.67;;;5.30;;
14528;SDS011;7351;51.194;4.098;2023-03-14T12:53:55;8.47;;;4.93;;
14528;SDS011;7351;51.194;4.098;2023-03-14T12:56:54;7.87;;;5.17;;
14528;SDS011;7351;51.194;4.098;2023-03-14T12:59:30;8.53;;;5.50;;
14528;SDS011;7351;51.194;4.098;2023-03-14T13:02:01;11.97;;;6.77;;
14528;SDS011;7351;51.194;4.098;2023-03-14T13:04:43;9.07;;;5.70;;
14528;SDS011;7351;51.194;4.098;2023-03-14T13:07:13;9.60;;;5.30;;
14528;SDS011;7351;51.194;4.098;2023-03-14T13:09:59;7.70;;;4.97;;
14528;SDS011;7351;51.194;4.098;2023-03-14T13:12:29;6.43;;;4.93;;
14528;SDS011;7351;51.194;4.098;2023-03-14T13:15:11;8.23;;;5.60;;
14528;SDS011;7351;51.194;4.098;2023-03-14T13:17:45;7.93;;;4.97;;
14528;SDS011;7351;51.194;4.098;2023-03-14T13:20:15;10.40;;;5.70;;
14528;SDS011;7351;51.194;4.098;2023-03-14T13:22:47;7.37;;;4.53;;
14528;SDS011;7351;51.194;4.098;2023-03-14T13:25:16;11.17;;;5.90;;
14528;SDS011;7351;51.194;4.098;2023-03-14T13:27:46;11.30;;;5.60;;
14528;SDS011;7351;51.194;4.098;2023-03-14T13:30:15;8.53;;;5.50;;
14528;SDS011;7351;51.194;4.098;2023-03-14T13:32:46;7.33;;;4.73;;
14528;SDS011;7351;51.194;4.098;2023-03-14T13:35:14;7.90;;;5.13;;
14528;SDS011;7351;51.194;4.098;2023-03-14T13:37:43;8.13;;;4.73;;
14528;SDS011;7351;51.194;4.098;2023-03-14T13:40:18;9.37;;;5.43;;
14528;SDS011;7351;51.194;4.098;2023-03-14T13:42:47;8.10;;;4.87;;
14528;SDS011;7351;51.194;4.098;2023-03-14T13:45:14;7.93;;;4.73;;
14528;SDS011;7351;51.194;4.098;2023-03-14T13:47:41;7.33;;;4.63;;
14528;SDS011;7351;51.194;4.098;2023-03-14T13:50:14;6.27;;;4.43;;
14528;SDS011;7351;51.194;4.098;2023-03-14T13:52:43;7.50;;;4.43;;
14528;SDS011;7351;51.194;4.098;2023-03-14T13:55:14;9.73;;;4.93;;
14528;SDS011;7351;51.194;4.098;2023-03-14T13:57:43;9.23;;;4.13;;
14528;SDS011;7351;51.194;4.098;2023-03-14T14:00:18;8.43;;;5.00;;
14528;SDS011;7351;51.194;4.098;2023-03-14T14:02:46;11.07;;;4.47;;
14528;SDS011;7351;51.194;4.098;2023-03-14T14:05:16;7.60;;;4.30;;
14528;SDS011;7351;51.194;4.098;2023-03-14T14:07:43;8.87;;;4.33;;
14528;SDS011;7351;51.194;4.098;2023-03-14T14:10:11;5.90;;;4.07;;
14528;SDS011;7351;51.194;4.098;2023-03-14T14:12:40;6.73;;;4.70;;
14528;SDS011;7351;51.194;4.098;2023-03-14T14:15:15;9.53;;;4.00;;
14528;SDS011;7351;51.194;4.098;2023-03-14T14:17:46;6.03;;;3.53;;
14528;SDS011;7351;51.194;4.098;2023-03-14T14:20:20;7.80;;;3.80;;
14528;SDS011;7351;51.194;4.098;2023-03-14T14:22:49;6.30;;;3.60;;
14528;SDS011;7351;51.194;4.098;2023-03-14T14:25:17;5.63;;;3.40;;
14528;SDS011;7351;51.194;4.098;2023-03-14T14:27:47;5.47;;;3.57;;
14528;SDS011;7351;51.194;4.098;2023-03-14T14:30:24;8.50;;;3.67;;
14528;SDS011;7351;51.194;4.098;2023-03-14T14:33:06;8.47;;;4.13;;
14528;SDS011;7351;51.194;4.098;2023-03-14T14:35:39;4.83;;;3.17;;
14528;SDS011;7351;51.194;4.098;2023-03-14T14:38:10;4.93;;;3.40;;
14528;SDS011;7351;51.194;4.098;2023-03-14T14:40:45;6.17;;;3.67;;
14528;SDS011;7351;51.194;4.098;2023-03-14T14:43:15;4.77;;;3.27;;
14528;SDS011;7351;51.194;4.098;2023-03-14T14:45:45;7.80;;;3.90;;
14528;SDS011;7351;51.194;4.098;2023-03-14T14:48:14;6.97;;;3.80;;
14528;SDS011;7351;51.194;4.098;2023-03-14T14:50:50;4.50;;;3.40;;
14528;SDS011;7351;51.194;4.098;2023-03-14T14:53:23;5.47;;;3.47;;
14528;SDS011;7351;51.194;4.098;2023-03-14T14:55:53;7.93;;;2.60;;
14528;SDS011;7351;51.194;4.098;2023-03-14T14:58:23;5.37;;;3.30;;
14528;SDS011;7351;51.194;4.098;2023-03-14T15:00:53;5.57;;;3.73;;
14528;SDS011;7351;51.194;4.098;2023-03-14T15:03:23;8.43;;;3.33;;
14528;SDS011;7351;51.194;4.098;2023-03-14T15:05:55;9.07;;;3.60;;
14528;SDS011;7351;51.194;4.098;2023-03-14T15:08:22;6.63;;;3.20;;
14528;SDS011;7351;51.194;4.098;2023-03-14T15:10:51;6.17;;;3.57;;
14528;SDS011;7351;51.194;4.098;2023-03-14T15:13:18;6.77;;;3.23;;
14528;SDS011;7351;51.194;4.098;2023-03-14T15:15:45;6.63;;;3.83;;
14528;SDS011;7351;51.194;4.098;2023-03-14T15:18:14;4.53;;;3.03;;
14528;SDS011;7351;51.194;4.098;2023-03-14T15:20:43;5.23;;;3.33;;
14528;SDS011;7351;51.194;4.098;2023-03-14T15:23:13;4.93;;;2.77;;
14528;SDS011;7351;51.194;4.098;2023-03-14T15:25:41;4.90;;;3.10;;